Time;durP1;ratioP1;P1;durP2;ratioP2;P2;SDS_P1;SDS_P2;PMS_P1;PMS_P2;Temp;Humidity;BMP_temperature;BMP_pressure;BME280_temperature;BME280_humidity;BME280_pressure;Samples;Min_cycle;Max_cycle;Signal;HPM_P1;HPM_P2
2021/01/25 00:00:41;;;;;;;0.00;0.00;;;;;;;;;;6257607;22;20186;-64
2021/01/25 00:03:08;;;;;;;0.13;0.13;;;;;;;;;;6259977;22;20169;-67
2021/01/25 00:05:37;;;;;;;0.17;0.17;;;;;;;;;;6256758;22;20178;-65
2021/01/25 00:08:04;;;;;;;0.30;0.30;;;;;;;;;;6261512;22;20212;-66
2021/01/25 00:10:31;;;;;;;0.27;0.27;;;;;;;;;;6260119;22;20710;-64
2021/01/25 00:12:58;;;;;;;0.60;0.60;;;;;;;;;;6258128;22;20172;-65
2021/01/25 00:15:24;;;;;;;0.40;0.40;;;;;;;;;;6259877;22;20219;-65
2021/01/25 00:17:51;;;;;;;0.10;0.10;;;;;;;;;;6258641;22;20146;-63
2021/01/25 00:20:18;;;;;;;0.90;0.90;;;;;;;;;;6261809;22;20184;-64
2021/01/25 00:22:45;;;;;;;0.10;0.10;;;;;;;;;;6261731;22;20181;-66
2021/01/25 00:25:13;;;;;;;0.10;0.10;;;;;;;;;;6261680;22;20154;-63
2021/01/25 00:27:42;;;;;;;0.10;0.10;;;;;;;;;;6261492;22;20212;-66
2021/01/25 00:30:09;;;;;;;0.10;0.10;;;;;;;;;;6261067;22;20249;-66
2021/01/25 00:32:35;;;;;;;0.10;0.10;;;;;;;;;;6261131;22;20152;-62
2021/01/25 00:35:04;;;;;;;0.10;0.10;;;;;;;;;;6260373;22;20219;-62
2021/01/25 00:37:31;;;;;;;0.10;0.10;;;;;;;;;;6262271;22;20165;-63
2021/01/25 00:39:58;;;;;;;0.10;0.10;;;;;;;;;;6260282;22;20201;-64
2021/01/25 00:42:26;;;;;;;2.23;0.50;;;;;;;;;;6262473;22;20677;-62
2021/01/25 00:44:54;;;;;;;0.40;0.40;;;;;;;;;;6267095;22;20609;-62
2021/01/25 00:47:21;;;;;;;0.10;0.10;;;;;;;;;;6265808;22;20166;-64
2021/01/25 00:49:49;;;;;;;0.10;0.10;;;;;;;;;;6261772;22;20161;-67
2021/01/25 00:52:17;;;;;;;0.10;0.10;;;;;;;;;;6260649;22;20169;-63
2021/01/25 00:54:44;;;;;;;0.13;0.13;;;;;;;;;;6260561;22;20374;-63
2021/01/25 00:57:12;;;;;;;0.30;0.30;;;;;;;;;;6259306;22;20161;-64
2021/01/25 00:59:40;;;;;;;0.10;0.10;;;;;;;;;;6258918;22;20627;-65
2021/01/25 01:02:07;;;;;;;0.10;0.10;;;;;;;;;;6257884;22;20257;-66
2021/01/25 01:04:38;;;;;;;0.10;0.10;;;;;;;;;;6263841;22;20192;-64
2021/01/25 01:07:06;;;;;;;0.10;0.10;;;;;;;;;;6263630;22;20208;-66
2021/01/25 01:09:35;;;;;;;0.00;0.00;;;;;;;;;;6256090;22;20663;-65
2021/01/25 01:12:02;;;;;;;0.10;0.10;;;;;;;;;;6295469;22;20188;-64
2021/01/25 01:14:28;;;;;;;0.30;0.30;;;;;;;;;;6289487;22;20521;-65
2021/01/25 01:16:55;;;;;;;0.00;0.00;;;;;;;;;;6292359;22;20191;-64
2021/01/25 01:19:23;;;;;;;23.27;5.43;;;;;;;;;;6262695;22;20196;-65
2021/01/25 01:21:50;;;;;;;0.00;0.00;;;;;;;;;;6290769;22;20153;-63
2021/01/25 01:24:17;;;;;;;0.00;0.00;;;;;;;;;;6289894;22;20180;-66
2021/01/25 01:26:43;;;;;;;0.00;0.00;;;;;;;;;;6290844;22;20157;-65
2021/01/25 01:29:10;;;;;;;0.13;0.10;;;;;;;;;;6291037;22;20173;-63
2021/01/25 01:31:37;;;;;;;0.00;0.00;;;;;;;;;;6263647;22;20184;-64
2021/01/25 01:34:04;;;;;;;0.00;0.00;;;;;;;;;;6289478;22;20165;-63
2021/01/25 01:36:31;;;;;;;0.00;0.00;;;;;;;;;;6288971;22;20161;-64
2021/01/25 01:38:58;;;;;;;0.20;0.20;;;;;;;;;;6288895;22;20188;-64
2021/01/25 01:41:24;;;;;;;0.10;0.10;;;;;;;;;;6288476;22;20175;-65
2021/01/25 01:43:51;;;;;;;0.00;0.00;;;;;;;;;;6289356;22;20149;-62
2021/01/25 01:46:18;;;;;;;0.10;0.10;;;;;;;;;;6290333;22;20161;-64
2021/01/25 01:48:45;;;;;;;0.00;0.00;;;;;;;;;;6291362;22;20156;-65
2021/01/25 01:51:12;;;;;;;0.00;0.00;;;;;;;;;;6297304;22;20161;-62
2021/01/25 01:53:39;;;;;;;0.00;0.00;;;;;;;;;;6291250;22;20172;-64
2021/01/25 01:56:06;;;;;;;0.00;0.00;;;;;;;;;;6261729;22;20575;-64
2021/01/25 01:58:32;;;;;;;0.00;0.00;;;;;;;;;;6297994;22;20196;-65
2021/01/25 02:00:59;;;;;;;0.00;0.00;;;;;;;;;;6298615;22;20164;-63
2021/01/25 02:03:26;;;;;;;0.00;0.00;;;;;;;;;;6287592;22;20486;-63
2021/01/25 02:05:53;;;;;;;0.00;0.00;;;;;;;;;;6288498;22;20678;-63
2021/01/25 02:08:21;;;;;;;0.40;0.40;;;;;;;;;;6290514;22;20263;-64
2021/01/25 02:10:50;;;;;;;0.03;0.03;;;;;;;;;;6287912;22;20223;-65
2021/01/25 02:13:17;;;;;;;0.20;0.20;;;;;;;;;;6290975;22;20155;-63
2021/01/25 02:15:44;;;;;;;0.00;0.00;;;;;;;;;;6291581;22;20420;-65
2021/01/25 02:18:12;;;;;;;0.10;0.10;;;;;;;;;;6288046;22;20192;-63
2021/01/25 02:20:43;;;;;;;0.00;0.00;;;;;;;;;;6289691;22;20179;-63
2021/01/25 02:23:40;;;;;;;0.00;0.00;;;;;;;;;;6288840;22;20587;-63
2021/01/25 02:26:06;;;;;;;0.00;0.00;;;;;;;;;;6275706;22;20221;-64
2021/01/25 02:28:33;;;;;;;0.00;0.00;;;;;;;;;;6286619;22;20165;-63
2021/01/25 02:31:04;;;;;;;0.63;0.63;;;;;;;;;;6290322;22;20157;-63
2021/01/25 02:33:33;;;;;;;0.00;0.00;;;;;;;;;;6288127;22;20153;-62
2021/01/25 02:36:00;;;;;;;0.00;0.00;;;;;;;;;;6288569;22;20157;-64
2021/01/25 02:38:29;;;;;;;0.03;0.03;;;;;;;;;;6288974;22;20196;-64
2021/01/25 02:40:57;;;;;;;0.00;0.00;;;;;;;;;;6287287;22;20153;-62
2021/01/25 02:43:26;;;;;;;0.00;0.00;;;;;;;;;;6289826;22;20164;-63
2021/01/25 02:45:53;;;;;;;0.00;0.00;;;;;;;;;;6289048;22;20164;-64
2021/01/25 02:48:19;;;;;;;0.00;0.00;;;;;;;;;;6289612;22;20166;-64
2021/01/25 02:50:50;;;;;;;0.00;0.00;;;;;;;;;;6288911;22;20426;-63
2021/01/25 02:53:16;;;;;;;0.00;0.00;;;;;;;;;;6289887;22;20172;-63
2021/01/25 02:55:43;;;;;;;0.00;0.00;;;;;;;;;;6288130;22;20188;-64
2021/01/25 02:58:11;;;;;;;0.00;0.00;;;;;;;;;;6288025;22;20304;-64
2021/01/25 03:00:38;;;;;;;0.00;0.00;;;;;;;;;;6289759;22;20583;-64
2021/01/25 03:03:05;;;;;;;0.00;0.00;;;;;;;;;;6289478;22;20264;-65
2021/01/25 03:05:31;;;;;;;0.00;0.00;;;;;;;;;;6263595;22;20290;-63
2021/01/25 03:07:59;;;;;;;0.30;0.30;;;;;;;;;;6292629;22;20241;-65
2021/01/25 03:10:25;;;;;;;0.00;0.00;;;;;;;;;;6292475;22;20205;-63
2021/01/25 03:12:52;;;;;;;0.40;0.40;;;;;;;;;;6291937;22;20176;-63
2021/01/25 03:15:19;;;;;;;0.00;0.00;;;;;;;;;;6292991;22;20264;-63
2021/01/25 03:17:45;;;;;;;0.00;0.00;;;;;;;;;;6292582;22;20244;-63
2021/01/25 03:20:12;;;;;;;0.00;0.00;;;;;;;;;;6291826;22;20252;-63
2021/01/25 03:22:39;;;;;;;0.10;0.10;;;;;;;;;;6292487;22;20169;-63
2021/01/25 03:25:07;;;;;;;0.07;0.07;;;;;;;;;;6293637;22;20157;-63
2021/01/25 03:27:33;;;;;;;0.07;0.07;;;;;;;;;;6293399;22;20160;-64
2021/01/25 03:30:00;;;;;;;0.00;0.00;;;;;;;;;;6266362;22;20501;-63
2021/01/25 03:32:27;;;;;;;0.00;0.00;;;;;;;;;;6293511;22;20153;-63
2021/01/25 03:34:54;;;;;;;0.00;0.00;;;;;;;;;;6291241;22;20596;-63
2021/01/25 03:37:21;;;;;;;0.00;0.00;;;;;;;;;;6292874;22;20164;-63
2021/01/25 03:39:47;;;;;;;0.00;0.00;;;;;;;;;;6293036;22;20181;-63
2021/01/25 03:42:14;;;;;;;0.37;0.37;;;;;;;;;;6293909;22;20418;-65
2021/01/25 03:44:40;;;;;;;0.00;0.00;;;;;;;;;;6293035;22;20161;-63
2021/01/25 03:47:09;;;;;;;0.17;0.17;;;;;;;;;;6293223;22;20154;-63
2021/01/25 03:49:35;;;;;;;0.10;0.10;;;;;;;;;;6293342;22;20655;-64
2021/01/25 03:52:02;;;;;;;0.00;0.00;;;;;;;;;;6292296;22;20157;-63
2021/01/25 03:54:28;;;;;;;0.00;0.00;;;;;;;;;;6294239;22;20577;-64
2021/01/25 03:56:55;;;;;;;1.17;1.07;;;;;;;;;;6294893;22;20161;-63
2021/01/25 03:59:22;;;;;;;0.00;0.00;;;;;;;;;;6294191;22;20196;-62
2021/01/25 04:01:48;;;;;;;0.00;0.00;;;;;;;;;;6263094;22;20231;-65
2021/01/25 04:04:16;;;;;;;0.00;0.00;;;;;;;;;;6293251;22;20177;-64
2021/01/25 04:06:44;;;;;;;0.57;0.57;;;;;;;;;;6293151;22;20162;-62
2021/01/25 04:09:10;;;;;;;0.00;0.00;;;;;;;;;;6294033;22;20197;-63
2021/01/25 04:11:37;;;;;;;0.00;0.00;;;;;;;;;;6293587;22;20210;-64
2021/01/25 04:14:04;;;;;;;0.00;0.00;;;;;;;;;;6293975;22;20895;-63
2021/01/25 04:16:31;;;;;;;0.00;0.00;;;;;;;;;;6292502;22;20151;-62
2021/01/25 04:18:58;;;;;;;0.00;0.00;;;;;;;;;;6293302;22;20196;-65
2021/01/25 04:21:25;;;;;;;1.13;0.17;;;;;;;;;;6293521;22;20156;-63
2021/01/25 04:23:51;;;;;;;0.00;0.00;;;;;;;;;;6294542;22;20656;-62
2021/01/25 04:26:18;;;;;;;0.00;0.00;;;;;;;;;;6292718;22;20153;-64
2021/01/25 04:28:44;;;;;;;0.00;0.00;;;;;;;;;;6293418;22;20612;-65
2021/01/25 04:31:11;;;;;;;0.00;0.00;;;;;;;;;;6292724;22;20149;-63
2021/01/25 04:33:39;;;;;;;0.00;0.00;;;;;;;;;;6292933;22;20611;-65
2021/01/25 04:36:06;;;;;;;0.00;0.00;;;;;;;;;;6292881;22;20268;-63
2021/01/25 04:38:33;;;;;;;0.10;0.10;;;;;;;;;;6292922;22;20903;-63
2021/01/25 04:41:00;;;;;;;0.00;0.00;;;;;;;;;;6293194;22;20161;-63
2021/01/25 04:43:27;;;;;;;0.17;0.17;;;;;;;;;;6292894;22;20244;-62
2021/01/25 04:45:54;;;;;;;0.10;0.10;;;;;;;;;;6292528;22;20156;-63
2021/01/25 04:48:26;;;;;;;2.10;0.83;;;;;;;;;;6292302;22;20541;-63
2021/01/25 04:50:54;;;;;;;0.00;0.00;;;;;;;;;;6292994;22;20156;-63
2021/01/25 04:53:21;;;;;;;0.17;0.17;;;;;;;;;;6294018;22;20249;-63
2021/01/25 14:00:33;;;;;;;0.17;0.17;;;;;;;;;;5075622;27;20627;-64
2021/01/25 14:03:00;;;;;;;0.10;0.10;;;;;;;;;;5075107;28;20178;-65
2021/01/25 14:05:27;;;;;;;0.10;0.10;;;;;;;;;;5073834;28;20183;-64
2021/01/25 14:07:54;;;;;;;0.10;0.10;;;;;;;;;;5067755;28;20211;-64
2021/01/25 14:10:22;;;;;;;0.30;0.30;;;;;;;;;;5073693;28;20178;-64
2021/01/25 14:12:49;;;;;;;0.10;0.10;;;;;;;;;;5069159;28;20188;-64
2021/01/25 14:15:16;;;;;;;0.13;0.13;;;;;;;;;;5072214;28;20184;-67
2021/01/25 14:17:43;;;;;;;0.10;0.10;;;;;;;;;;5074560;28;20655;-65
2021/01/25 14:20:10;;;;;;;0.00;0.00;;;;;;;;;;5072885;28;20218;-66
2021/01/25 14:22:37;;;;;;;0.10;0.10;;;;;;;;;;5060795;28;20190;-63
2021/01/25 14:25:07;;;;;;;0.10;0.10;;;;;;;;;;5067083;28;20195;-64
2021/01/25 14:27:34;;;;;;;15.67;3.70;;;;;;;;;;5075888;28;20644;-63
2021/01/25 14:30:01;;;;;;;0.20;0.20;;;;;;;;;;5069133;28;20214;-65
2021/01/25 14:32:28;;;;;;;0.47;0.47;;;;;;;;;;5075637;28;20178;-63
2021/01/25 14:34:56;;;;;;;0.27;0.27;;;;;;;;;;5077849;28;20193;-63
2021/01/25 14:37:23;;;;;;;0.10;0.10;;;;;;;;;;5061380;28;20182;-65
2021/01/25 14:39:49;;;;;;;0.30;0.30;;;;;;;;;;5072942;28;20598;-65
2021/01/25 14:42:16;;;;;;;0.10;0.10;;;;;;;;;;5069596;28;20189;-65
2021/01/25 14:44:42;;;;;;;0.67;0.60;;;;;;;;;;5069074;28;20731;-63
2021/01/25 14:47:09;;;;;;;1.70;0.67;;;;;;;;;;5071330;28;20182;-65
2021/01/25 14:49:36;;;;;;;0.10;0.10;;;;;;;;;;5073160;28;20174;-66
2021/01/25 14:52:03;;;;;;;0.20;0.20;;;;;;;;;;5074031;28;20195;-64
2021/01/25 14:54:30;;;;;;;2.77;0.70;;;;;;;;;;5070303;28;20191;-66
2021/01/25 14:56:57;;;;;;;0.20;0.20;;;;;;;;;;5059915;28;20175;-64
2021/01/25 14:59:23;;;;;;;0.20;0.20;;;;;;;;;;5067021;28;20238;-63
2021/01/25 15:01:50;;;;;;;0.67;0.23;;;;;;;;;;5067705;28;20898;-66
2021/01/25 15:04:17;;;;;;;1.50;0.60;;;;;;;;;;5080167;28;20187;-66
2021/01/25 15:06:44;;;;;;;0.10;0.10;;;;;;;;;;5074688;28;20178;-64
2021/01/25 15:09:10;;;;;;;0.67;0.27;;;;;;;;;;5070546;28;20260;-66
2021/01/25 15:11:37;;;;;;;0.73;0.73;;;;;;;;;;5055436;28;20183;-64
2021/01/25 15:14:04;;;;;;;0.17;0.17;;;;;;;;;;5048430;28;20186;-64
2021/01/25 15:16:30;;;;;;;0.13;0.13;;;;;;;;;;5058681;28;20208;-68
2021/01/25 15:18:57;;;;;;;0.10;0.10;;;;;;;;;;5058065;28;20241;-63
2021/01/25 15:21:24;;;;;;;0.10;0.10;;;;;;;;;;5057356;28;20793;-64
2021/01/25 15:23:50;;;;;;;0.20;0.20;;;;;;;;;;5052544;28;20310;-67
2021/01/25 15:26:17;;;;;;;0.37;0.37;;;;;;;;;;5052445;28;20283;-64
2021/01/25 15:28:44;;;;;;;3.53;0.93;;;;;;;;;;5053416;28;20194;-65
2021/01/25 15:31:10;;;;;;;0.33;0.33;;;;;;;;;;5059074;28;20179;-67
2021/01/25 15:33:37;;;;;;;0.10;0.10;;;;;;;;;;5056078;28;20200;-65
2021/01/25 15:36:04;;;;;;;0.10;0.10;;;;;;;;;;5060117;28;20195;-64
2021/01/25 15:38:31;;;;;;;0.27;0.27;;;;;;;;;;5047273;28;20207;-66
2021/01/25 15:40:57;;;;;;;0.10;0.10;;;;;;;;;;5060383;28;20329;-66
2021/01/25 15:43:24;;;;;;;0.30;0.30;;;;;;;;;;5054055;28;20194;-66
2021/01/25 15:45:51;;;;;;;0.73;0.23;;;;;;;;;;5048841;28;20176;-65
2021/01/25 15:48:17;;;;;;;1.50;0.20;;;;;;;;;;5045788;28;20191;-65
2021/01/25 15:50:44;;;;;;;0.10;0.10;;;;;;;;;;5044980;28;20207;-65
2021/01/25 15:53:11;;;;;;;0.10;0.10;;;;;;;;;;5063129;28;20215;-66
2021/01/25 15:55:37;;;;;;;0.93;0.20;;;;;;;;;;5054945;28;20616;-66
2021/01/25 15:58:08;;;;;;;0.10;0.10;;;;;;;;;;5058848;28;20191;-65
2021/01/25 16:00:34;;;;;;;0.00;0.00;;;;;;;;;;5056771;28;20214;-66
2021/01/25 16:03:01;;;;;;;0.77;0.77;;;;;;;;;;5051021;28;20262;-67
2021/01/25 16:05:28;;;;;;;0.30;0.27;;;;;;;;;;5054998;28;20538;-66
2021/01/25 16:07:54;;;;;;;0.00;0.00;;;;;;;;;;5053870;28;20175;-66
2021/01/25 16:10:21;;;;;;;0.30;0.30;;;;;;;;;;5059550;28;20206;-66
2021/01/25 16:12:47;;;;;;;0.10;0.10;;;;;;;;;;5059302;28;20197;-64
2021/01/25 16:15:16;;;;;;;0.00;0.00;;;;;;;;;;5051705;28;20240;-65
2021/01/25 16:17:46;;;;;;;0.30;0.20;;;;;;;;;;5061028;28;20194;-65
2021/01/25 16:20:13;;;;;;;3.13;1.70;;;;;;;;;;5051861;28;20221;-66
2021/01/25 16:22:40;;;;;;;0.00;0.00;;;;;;;;;;5048396;28;20192;-67
2021/01/25 16:25:07;;;;;;;1.70;0.93;;;;;;;;;;5044163;28;20191;-65
2021/01/25 16:27:34;;;;;;;0.10;0.10;;;;;;;;;;5042634;28;20194;-65
2021/01/25 16:30:01;;;;;;;0.20;0.17;;;;;;;;;;5043467;28;20258;-66
2021/01/25 16:32:27;;;;;;;0.40;0.40;;;;;;;;;;5056468;28;20707;-64
2021/01/25 16:34:55;;;;;;;0.03;0.03;;;;;;;;;;5052229;28;20556;-64
2021/01/25 16:37:22;;;;;;;0.10;0.10;;;;;;;;;;5042836;28;20184;-65
2021/01/25 16:39:49;;;;;;;0.10;0.10;;;;;;;;;;5042656;28;20215;-65
2021/01/25 16:42:16;;;;;;;0.10;0.10;;;;;;;;;;5043375;28;20533;-65
2021/01/25 16:44:42;;;;;;;0.20;0.20;;;;;;;;;;5043071;28;20194;-64
2021/01/25 16:47:09;;;;;;;0.00;0.00;;;;;;;;;;5043700;28;20183;-65
2021/01/25 16:49:36;;;;;;;1.73;1.07;;;;;;;;;;5043319;28;20191;-65
2021/01/25 16:52:06;;;;;;;0.67;0.30;;;;;;;;;;5043062;28;20191;-64
2021/01/25 16:54:33;;;;;;;2.07;0.40;;;;;;;;;;5043226;28;20191;-66
2021/01/25 16:57:03;;;;;;;1.10;0.53;;;;;;;;;;5060586;28;20269;-65
2021/01/25 16:59:31;;;;;;;0.03;0.03;;;;;;;;;;5051658;28;20341;-64
2021/01/25 17:01:58;;;;;;;0.40;0.30;;;;;;;;;;5060498;28;20194;-65
2021/01/25 17:04:24;;;;;;;0.00;0.00;;;;;;;;;;5057505;28;20810;-64
2021/01/25 17:06:51;;;;;;;0.27;0.20;;;;;;;;;;5046658;28;20788;-66
2021/01/25 17:09:19;;;;;;;0.10;0.10;;;;;;;;;;5041704;28;20245;-64
2021/01/25 17:11:45;;;;;;;2.13;2.03;;;;;;;;;;5042876;28;20530;-65
2021/01/25 17:14:12;;;;;;;0.77;0.60;;;;;;;;;;5041783;28;20559;-64
2021/01/25 17:16:39;;;;;;;5.40;0.40;;;;;;;;;;5050546;28;20185;-65
2021/01/25 17:19:05;;;;;;;0.10;0.10;;;;;;;;;;5050591;28;20333;-65
2021/01/25 17:21:32;;;;;;;0.87;0.30;;;;;;;;;;5049460;28;20191;-64
2021/01/25 17:23:59;;;;;;;0.30;0.30;;;;;;;;;;5051984;28;20207;-64
2021/01/25 17:26:25;;;;;;;0.53;0.37;;;;;;;;;;5057643;28;21020;-66
2021/01/25 17:28:53;;;;;;;0.10;0.10;;;;;;;;;;5054589;28;20784;-65
2021/01/25 17:31:20;;;;;;;0.87;0.87;;;;;;;;;;5045629;28;20706;-65
2021/01/25 17:33:47;;;;;;;0.30;0.30;;;;;;;;;;5052458;28;20765;-64
2021/01/25 17:36:14;;;;;;;0.10;0.10;;;;;;;;;;5053736;28;20179;-63
2021/01/25 17:38:40;;;;;;;0.10;0.10;;;;;;;;;;5049230;28;20207;-67
2021/01/25 17:41:07;;;;;;;0.10;0.10;;;;;;;;;;5047209;28;20309;-64
2021/01/25 17:43:37;;;;;;;0.47;0.23;;;;;;;;;;5041667;28;20767;-64
2021/01/25 17:46:04;;;;;;;0.20;0.20;;;;;;;;;;5054323;28;20677;-63
2021/01/25 17:48:31;;;;;;;1.90;0.60;;;;;;;;;;5047760;28;20215;-68
2021/01/25 17:50:58;;;;;;;1.60;0.37;;;;;;;;;;5042187;28;20191;-64
2021/01/25 17:53:25;;;;;;;3.80;0.67;;;;;;;;;;5054344;28;20190;-65
2021/01/25 17:55:54;;;;;;;0.23;0.23;;;;;;;;;;5052566;28;20270;-66
2021/01/25 17:58:21;;;;;;;0.20;0.20;;;;;;;;;;5052750;28;20218;-67
2021/01/25 18:00:47;;;;;;;0.60;0.60;;;;;;;;;;5057221;28;20209;-66
2021/01/25 18:03:14;;;;;;;0.10;0.10;;;;;;;;;;5058135;28;20190;-65
2021/01/25 18:05:41;;;;;;;0.30;0.30;;;;;;;;;;5059831;28;20228;-67
2021/01/25 18:08:07;;;;;;;0.20;0.20;;;;;;;;;;5058187;28;20229;-66
2021/01/25 18:10:34;;;;;;;0.40;0.40;;;;;;;;;;5052990;28;20193;-64
2021/01/25 18:13:01;;;;;;;0.30;0.30;;;;;;;;;;5051763;28;20183;-68
2021/01/25 18:15:31;;;;;;;3.83;0.73;;;;;;;;;;5051578;28;20284;-66
2021/01/25 18:17:58;;;;;;;0.93;0.30;;;;;;;;;;5049942;28;20188;-64
2021/01/25 18:20:25;;;;;;;0.30;0.30;;;;;;;;;;5043417;28;20757;-64
2021/01/25 18:22:52;;;;;;;1.77;0.87;;;;;;;;;;5056112;28;20615;-64
2021/01/25 18:25:19;;;;;;;0.10;0.10;;;;;;;;;;5044145;28;20254;-63
2021/01/25 18:27:45;;;;;;;0.20;0.20;;;;;;;;;;5053123;28;20183;-63
2021/01/25 18:30:17;;;;;;;0.17;0.17;;;;;;;;;;5040849;28;20191;-65
2021/01/25 18:32:43;;;;;;;0.10;0.10;;;;;;;;;;5053890;28;20190;-67
2021/01/25 18:35:10;;;;;;;0.33;0.33;;;;;;;;;;5042154;28;20215;-67
2021/01/25 18:37:37;;;;;;;0.10;0.10;;;;;;;;;;5040772;28;20188;-65
2021/01/25 18:40:04;;;;;;;0.10;0.10;;;;;;;;;;5055046;28;20708;-64
2021/01/25 18:42:31;;;;;;;0.10;0.10;;;;;;;;;;5052667;28;20218;-64
2021/01/25 18:44:58;;;;;;;0.10;0.10;;;;;;;;;;5043919;28;20186;-64
2021/01/25 18:47:25;;;;;;;0.20;0.20;;;;;;;;;;5045663;28;20188;-64
2021/01/25 18:49:52;;;;;;;0.10;0.10;;;;;;;;;;5048167;28;20174;-64
2021/01/25 18:52:19;;;;;;;0.10;0.10;;;;;;;;;;5044731;28;20318;-65
2021/01/25 18:54:45;;;;;;;4.73;4.40;;;;;;;;;;5045608;28;20179;-65
2021/01/25 18:57:12;;;;;;;1.00;0.50;;;;;;;;;;5054918;28;20194;-66
2021/01/25 18:59:38;;;;;;;0.20;0.20;;;;;;;;;;5070538;28;20226;-65
2021/01/25 19:02:05;;;;;;;0.70;0.70;;;;;;;;;;5061183;28;20190;-64
2021/01/25 19:04:32;;;;;;;0.10;0.10;;;;;;;;;;5064226;28;20183;-64
2021/01/25 19:06:58;;;;;;;0.17;0.17;;;;;;;;;;5063904;28;20188;-63
2021/01/25 19:09:25;;;;;;;0.83;0.20;;;;;;;;;;5054941;28;20196;-65
2021/01/25 19:11:51;;;;;;;0.50;0.50;;;;;;;;;;5052815;28;20267;-66
2021/01/25 19:14:18;;;;;;;1.90;0.87;;;;;;;;;;5055768;28;20187;-64
2021/01/25 19:16:45;;;;;;;2.10;0.40;;;;;;;;;;5054296;28;20192;-63
2021/01/25 19:19:12;;;;;;;0.40;0.40;;;;;;;;;;5045251;28;20258;-64
2021/01/25 19:21:38;;;;;;;0.20;0.20;;;;;;;;;;5050502;28;20286;-63
2021/01/25 19:24:05;;;;;;;2.67;0.30;;;;;;;;;;5067310;28;20193;-64
2021/01/25 19:26:32;;;;;;;0.10;0.10;;;;;;;;;;5046772;28;20313;-64
2021/01/25 19:28:58;;;;;;;0.83;0.83;;;;;;;;;;5051085;28;20179;-64
2021/01/25 19:31:26;;;;;;;1.07;0.50;;;;;;;;;;5055782;28;20187;-64
2021/01/25 19:33:53;;;;;;;0.10;0.10;;;;;;;;;;5056800;28;20294;-63
2021/01/25 19:36:21;;;;;;;0.50;0.50;;;;;;;;;;5044091;28;20229;-65
2021/01/25 19:38:47;;;;;;;0.07;0.07;;;;;;;;;;5048784;28;20210;-64
2021/01/25 19:41:14;;;;;;;0.20;0.20;;;;;;;;;;5045963;28;20188;-64
2021/01/25 19:43:41;;;;;;;0.10;0.10;;;;;;;;;;5046550;28;21036;-66
2021/01/25 19:46:08;;;;;;;0.10;0.10;;;;;;;;;;5045884;28;20194;-64
2021/01/25 19:48:34;;;;;;;0.00;0.00;;;;;;;;;;5048480;28;20195;-64
2021/01/25 19:51:01;;;;;;;0.10;0.10;;;;;;;;;;5053137;28;20230;-66
2021/01/25 19:53:30;;;;;;;0.20;0.20;;;;;;;;;;5068203;28;20645;-63
2021/01/25 19:55:56;;;;;;;0.73;0.30;;;;;;;;;;5059161;28;20817;-64
2021/01/25 19:58:23;;;;;;;0.00;0.00;;;;;;;;;;5066649;28;20178;-64
2021/01/25 20:00:50;;;;;;;0.00;0.00;;;;;;;;;;5053306;28;20824;-63
2021/01/25 20:03:18;;;;;;;0.30;0.30;;;;;;;;;;5058649;28;20217;-65
2021/01/25 20:05:45;;;;;;;0.00;0.00;;;;;;;;;;5063180;28;20186;-64
2021/01/25 20:08:12;;;;;;;2.20;0.30;;;;;;;;;;5054082;28;20697;-64
2021/01/25 20:10:39;;;;;;;0.70;0.70;;;;;;;;;;5049412;28;20175;-63
2021/01/25 20:13:06;;;;;;;0.77;0.30;;;;;;;;;;5057713;28;21036;-63
2021/01/25 20:15:37;;;;;;;0.00;0.00;;;;;;;;;;5055183;28;20191;-63
2021/01/25 20:18:27;;;;;;;0.20;0.20;;;;;;;;;;5049353;28;20194;-63
2021/01/25 20:21:02;;;;;;;0.17;0.17;;;;;;;;;;5053217;28;20693;-64
2021/01/25 20:23:30;;;;;;;0.10;0.10;;;;;;;;;;5045200;28;20244;-63
2021/01/25 20:25:58;;;;;;;0.30;0.30;;;;;;;;;;5052654;28;20260;-63
2021/01/25 20:28:26;;;;;;;1.27;1.27;;;;;;;;;;5056413;28;20183;-64
2021/01/25 20:30:53;;;;;;;0.10;0.10;;;;;;;;;;5054956;28;20202;-64
2021/01/25 20:33:28;;;;;;;0.00;0.00;;;;;;;;;;5057866;28;20180;-64
2021/01/25 20:35:55;;;;;;;0.10;0.10;;;;;;;;;;5055254;28;20236;-64
2021/01/25 20:38:23;;;;;;;0.00;0.00;;;;;;;;;;5057075;28;20188;-65
2021/01/25 20:40:50;;;;;;;0.60;0.60;;;;;;;;;;5052041;28;20191;-64
2021/01/25 20:43:17;;;;;;;0.37;0.37;;;;;;;;;;5057453;28;20697;-65
2021/01/25 20:45:48;;;;;;;0.70;0.27;;;;;;;;;;5056679;28;20186;-65
2021/01/25 20:48:22;;;;;;;0.10;0.10;;;;;;;;;;5055147;28;20641;-64
2021/01/25 20:50:49;;;;;;;0.00;0.00;;;;;;;;;;5051025;28;20182;-65
2021/01/25 20:53:17;;;;;;;0.40;0.40;;;;;;;;;;5054441;28;20594;-66
2021/01/25 20:55:44;;;;;;;0.83;0.83;;;;;;;;;;5055566;28;20190;-64
2021/01/25 20:58:11;;;;;;;0.00;0.00;;;;;;;;;;5055648;28;20712;-67
2021/01/25 21:00:40;;;;;;;0.10;0.10;;;;;;;;;;5052604;28;20537;-65
2021/01/25 21:03:07;;;;;;;1.20;0.67;;;;;;;;;;5049788;28;20179;-65
2021/01/25 21:05:34;;;;;;;0.30;0.30;;;;;;;;;;5052061;28;20281;-65
2021/01/25 21:08:01;;;;;;;0.30;0.30;;;;;;;;;;5046310;28;20452;-65
2021/01/25 21:10:28;;;;;;;0.10;0.10;;;;;;;;;;5052510;28;20197;-65
2021/01/25 21:12:55;;;;;;;0.13;0.03;;;;;;;;;;5060795;28;20578;-64
2021/01/25 21:15:26;;;;;;;0.10;0.10;;;;;;;;;;5052584;28;20194;-64
2021/01/25 21:17:53;;;;;;;0.00;0.00;;;;;;;;;;5052430;28;20187;-64
2021/01/25 21:20:20;;;;;;;0.00;0.00;;;;;;;;;;5043373;28;20245;-64
2021/01/25 21:22:47;;;;;;;1.07;0.13;;;;;;;;;;5047982;28;20239;-66
2021/01/25 21:25:14;;;;;;;0.63;0.63;;;;;;;;;;5053253;28;20954;-64
2021/01/25 21:27:41;;;;;;;0.00;0.00;;;;;;;;;;5045665;28;20194;-66
2021/01/25 21:30:09;;;;;;;0.20;0.20;;;;;;;;;;5047022;28;20278;-64
2021/01/25 21:32:36;;;;;;;0.53;0.53;;;;;;;;;;5056939;28;20194;-65
2021/01/25 21:35:03;;;;;;;0.87;0.10;;;;;;;;;;5050959;28;20221;-65
2021/01/25 21:37:29;;;;;;;0.10;0.10;;;;;;;;;;5054483;28;20244;-64
2021/01/25 21:39:56;;;;;;;0.20;0.20;;;;;;;;;;5055731;28;20224;-67
2021/01/25 21:42:23;;;;;;;0.00;0.00;;;;;;;;;;5047515;28;20727;-64
2021/01/25 21:44:50;;;;;;;2.57;0.23;;;;;;;;;;5056749;28;20184;-64
2021/01/25 21:47:17;;;;;;;0.30;0.30;;;;;;;;;;5051580;28;20183;-65
2021/01/25 21:49:45;;;;;;;0.67;0.67;;;;;;;;;;5047303;28;20190;-63
2021/01/25 21:52:12;;;;;;;0.00;0.00;;;;;;;;;;5051281;28;20191;-66
2021/01/25 21:54:39;;;;;;;5.23;5.03;;;;;;;;;;5056737;28;20186;-69
2021/01/25 21:57:06;;;;;;;1.80;1.77;;;;;;;;;;5052421;28;20206;-66
2021/01/25 21:59:32;;;;;;;0.00;0.00;;;;;;;;;;5046112;28;20234;-65
2021/01/25 22:01:59;;;;;;;0.27;0.27;;;;;;;;;;5055106;28;20182;-63
2021/01/25 22:04:26;;;;;;;1.00;0.50;;;;;;;;;;5055978;28;20229;-65
2021/01/25 22:06:52;;;;;;;0.00;0.00;;;;;;;;;;5057827;28;20186;-64
2021/01/25 22:09:19;;;;;;;2.30;0.70;;;;;;;;;;5052055;28;20237;-63
2021/01/25 22:11:46;;;;;;;0.40;0.40;;;;;;;;;;5056528;28;20266;-64
2021/01/25 22:14:13;;;;;;;0.00;0.00;;;;;;;;;;5047103;28;20691;-64
2021/01/25 22:16:39;;;;;;;1.17;0.17;;;;;;;;;;5051097;28;20718;-65
2021/01/25 22:19:06;;;;;;;0.57;0.57;;;;;;;;;;5057846;28;20249;-66
2021/01/25 22:21:33;;;;;;;0.00;0.00;;;;;;;;;;5051440;28;20183;-65
2021/01/25 22:23:59;;;;;;;0.30;0.30;;;;;;;;;;5055106;28;20183;-63
2021/01/25 22:26:26;;;;;;;0.00;0.00;;;;;;;;;;5056359;28;20367;-63
2021/01/25 22:28:52;;;;;;;0.00;0.00;;;;;;;;;;5059710;28;20191;-64
2021/01/25 22:31:19;;;;;;;0.13;0.13;;;;;;;;;;5056642;28;20187;-63
2021/01/25 22:33:46;;;;;;;0.60;0.30;;;;;;;;;;5059478;28;20371;-64
2021/01/25 22:36:14;;;;;;;0.00;0.00;;;;;;;;;;5055746;28;20187;-63
2021/01/25 22:38:41;;;;;;;0.90;0.83;;;;;;;;;;5058021;28;20230;-65
2021/01/25 22:41:07;;;;;;;0.47;0.30;;;;;;;;;;5057385;28;20183;-65
2021/01/25 22:43:34;;;;;;;0.27;0.20;;;;;;;;;;5057054;28;20198;-64
2021/01/25 22:46:01;;;;;;;0.97;0.60;;;;;;;;;;5060797;28;20305;-66
2021/01/25 22:48:27;;;;;;;0.00;0.00;;;;;;;;;;5052188;28;20210;-62
2021/01/25 22:50:54;;;;;;;0.23;0.23;;;;;;;;;;5050096;28;20184;-62
2021/01/25 22:53:21;;;;;;;0.17;0.10;;;;;;;;;;5059394;28;21066;-64
2021/01/25 22:55:48;;;;;;;0.00;0.00;;;;;;;;;;5060287;28;20194;-63
2021/01/25 22:58:14;;;;;;;0.00;0.00;;;;;;;;;;5049078;28;20217;-64
2021/01/25 23:00:41;;;;;;;0.53;0.17;;;;;;;;;;5054396;28;21052;-64
2021/01/25 23:03:09;;;;;;;0.10;0.10;;;;;;;;;;5050344;28;20614;-61
2021/01/25 23:05:37;;;;;;;0.20;0.20;;;;;;;;;;5052041;28;20187;-64
2021/01/25 23:08:04;;;;;;;0.43;0.43;;;;;;;;;;5053705;28;20244;-61
2021/01/25 23:10:32;;;;;;;0.00;0.00;;;;;;;;;;5052773;28;20656;-65
2021/01/25 23:12:59;;;;;;;0.97;0.87;;;;;;;;;;5046868;28;20757;-64
2021/01/25 23:15:25;;;;;;;1.03;0.30;;;;;;;;;;5053997;28;20191;-61
2021/01/25 23:17:52;;;;;;;0.00;0.00;;;;;;;;;;5057012;28;20193;-64
2021/01/25 23:20:21;;;;;;;0.00;0.00;;;;;;;;;;5055370;28;20253;-61
2021/01/25 23:22:47;;;;;;;0.00;0.00;;;;;;;;;;5052256;28;20190;-63
2021/01/25 23:25:14;;;;;;;0.00;0.00;;;;;;;;;;5049218;28;20673;-62
2021/01/25 23:27:41;;;;;;;0.07;0.07;;;;;;;;;;5056813;28;20509;-65
2021/01/25 23:30:16;;;;;;;0.83;0.83;;;;;;;;;;5058189;28;20185;-61
2021/01/25 23:32:45;;;;;;;0.17;0.17;;;;;;;;;;5050388;28;20191;-62
2021/01/25 23:35:14;;;;;;;0.00;0.00;;;;;;;;;;5056690;28;20444;-63
2021/01/25 23:37:40;;;;;;;0.10;0.10;;;;;;;;;;5053030;28;20221;-63
2021/01/25 23:40:08;;;;;;;0.50;0.20;;;;;;;;;;5056968;28;20260;-63
2021/01/25 23:42:34;;;;;;;0.20;0.20;;;;;;;;;;5051261;28;20786;-63
2021/01/25 23:45:01;;;;;;;0.63;0.63;;;;;;;;;;5059412;28;20954;-63
2021/01/25 23:47:27;;;;;;;0.93;0.30;;;;;;;;;;5055514;28;20191;-62